createdAt,value
2023-02-02T00:06:36.965Z,85.26
2023-02-02T00:16:36.838Z,85.30
2023-02-02T00:26:37.044Z,84.53
2023-02-02T00:36:37.159Z,84.12
2023-02-02T00:46:37.304Z,84.95
2023-02-02T00:56:37.394Z,85.36
2023-02-02T01:06:37.648Z,85.92
2023-02-02T01:16:37.771Z,86.13
2023-02-02T01:26:37.998Z,86.02
2023-02-02T01:36:38.099Z,85.99
2023-02-02T01:46:38.230Z,86.44
2023-02-02T01:56:38.317Z,89.48
2023-02-02T02:06:38.563Z,90.10
2023-02-02T02:16:38.877Z,90.62
2023-02-02T02:26:39.027Z,91.24
2023-02-02T02:36:39.114Z,90.41
2023-02-02T02:46:39.358Z,90.72
2023-02-02T02:56:39.456Z,90.72
2023-02-02T03:06:39.587Z,90.52
2023-02-02T03:16:39.665Z,90.62
2023-02-02T03:26:39.945Z,90.26
2023-02-02T03:36:40.043Z,90.16
2023-02-02T03:46:40.247Z,90.68
2023-02-02T03:56:40.359Z,90.26
2023-02-02T04:06:40.617Z,89.96
2023-02-02T04:16:40.717Z,90.16
2023-02-02T04:26:41.045Z,89.86
2023-02-02T04:36:41.167Z,89.96
2023-02-02T04:46:41.295Z,89.96
2023-02-02T04:56:41.485Z,89.50
2023-02-02T05:06:41.734Z,89.71
2023-02-02T05:16:42.061Z,89.61
2023-02-02T05:26:42.283Z,89.71
2023-02-02T05:36:42.317Z,89.81
2023-02-02T05:46:42.572Z,89.71
2023-02-02T05:56:42.670Z,90.78
2023-02-02T06:06:42.813Z,91.30
2023-02-02T06:16:43.049Z,91.51
2023-02-02T06:26:43.105Z,92.24
2023-02-02T06:36:43.229Z,92.24
2023-02-02T06:46:43.357Z,93.79
2023-02-02T06:56:43.716Z,95.70
2023-02-02T07:06:43.732Z,96.01
2023-02-02T07:16:43.827Z,96.01
2023-02-02T07:26:44.104Z,95.70
2023-02-02T07:36:44.217Z,95.80
2023-02-02T07:46:44.557Z,95.90
2023-02-02T07:56:44.554Z,95.14
2023-02-02T08:06:45.091Z,95.03
2023-02-02T08:16:44.960Z,94.16
2023-02-02T08:26:45.334Z,92.25
2023-02-02T08:36:45.305Z,91.28
2023-02-02T08:46:45.592Z,91.94
2023-02-02T08:56:45.824Z,92.05
2023-02-02T09:06:45.843Z,92.05
2023-02-02T09:16:46.107Z,91.28
2023-02-02T09:26:46.217Z,91.69
2023-02-02T09:36:46.230Z,91.63
2023-02-02T09:46:46.642Z,93.70
2023-02-02T09:56:46.583Z,93.91
2023-02-02T10:06:46.723Z,94.43
2023-02-02T10:16:46.818Z,96.44
2023-02-02T10:26:47.063Z,96.64
2023-02-02T10:36:47.374Z,96.54
2023-02-02T10:46:47.288Z,97.47
2023-02-02T10:56:47.367Z,97.57
2023-02-02T11:06:47.622Z,97.78
2023-02-02T11:16:47.914Z,98.09
2023-02-02T11:26:47.951Z,99.33
2023-02-02T11:36:48.154Z,99.99
2023-02-02T11:46:48.318Z,99.99
2023-02-02T11:56:48.429Z,99.99
2023-02-02T12:06:48.966Z,99.99
2023-02-02T12:16:48.928Z,99.99
2023-02-02T12:26:49.117Z,99.99
2023-02-02T12:36:49.209Z,99.99
2023-02-02T12:46:49.450Z,99.99
2023-02-02T12:56:49.737Z,99.91
2023-02-02T13:06:49.880Z,99.64
2023-02-02T13:16:50.038Z,99.85
2023-02-02T13:26:50.442Z,99.99
2023-02-02T13:36:50.377Z,99.99
2023-02-02T13:46:50.833Z,99.99
2023-02-02T13:56:50.807Z,99.99
2023-02-02T14:06:51.065Z,99.99
2023-02-02T14:16:51.249Z,99.99
2023-02-02T14:26:51.766Z,99.99
2023-02-02T14:36:51.666Z,98.56
2023-02-02T14:46:52.000Z,98.25
2023-02-02T14:59:22.152Z,97.59
2023-02-02T15:09:22.462Z,97.53
2023-02-02T15:19:22.694Z,97.32
2023-02-02T15:29:22.706Z,96.14
2023-02-02T15:39:23.227Z,95.21
2023-02-02T15:49:33.633Z,94.69
2023-02-02T15:59:24.331Z,93.97
2023-02-02T16:09:23.492Z,93.97
2023-02-02T16:19:23.709Z,93.72
2023-02-02T16:29:23.864Z,94.28
2023-02-02T16:39:23.959Z,97.32
2023-02-02T16:49:24.259Z,96.70
2023-02-02T16:59:24.343Z,97.63
2023-02-02T17:09:24.586Z,97.94
2023-02-02T17:19:24.783Z,97.63
2023-02-02T17:29:25.029Z,96.80
2023-02-02T17:39:25.227Z,96.24
2023-02-02T17:49:25.484Z,96.34
2023-02-02T17:59:25.666Z,96.03
2023-02-02T18:09:25.911Z,95.73
2023-02-02T18:19:26.121Z,94.79
2023-02-02T18:29:26.344Z,95.31
2023-02-02T18:39:26.547Z,96.03
2023-02-02T18:49:26.796Z,96.70
2023-02-02T18:59:26.987Z,97.42
2023-02-02T19:09:27.245Z,97.32
2023-02-02T19:19:27.434Z,97.63
2023-02-02T19:29:27.700Z,97.53
2023-02-02T19:39:27.881Z,97.94
2023-02-02T19:49:28.138Z,97.22
2023-02-02T19:59:28.227Z,97.32
2023-02-02T20:09:28.811Z,97.32
2023-02-02T20:19:28.500Z,97.53
2023-02-02T20:29:28.775Z,96.70
2023-02-02T20:39:28.868Z,96.19
2023-02-02T20:49:29.091Z,95.25
2023-02-02T20:59:29.286Z,95.25
2023-02-02T21:09:29.525Z,95.81
2023-02-02T21:19:29.742Z,95.19
2023-02-02T21:29:29.863Z,94.32
2023-02-02T21:39:30.068Z,92.67
2023-02-02T21:49:30.317Z,92.87
2023-02-02T21:59:30.674Z,92.25
2023-02-02T22:09:30.774Z,91.94
2023-02-02T22:19:30.856Z,92.15
2023-02-02T22:29:31.095Z,91.07
2023-02-02T22:39:31.488Z,90.87
2023-02-02T22:49:31.502Z,90.35
2023-02-02T22:59:31.695Z,90.10
2023-02-02T23:09:31.827Z,91.17
2023-02-02T23:19:32.021Z,90.20
2023-02-02T23:29:32.250Z,89.89
2023-02-02T23:39:32.459Z,89.48
2023-02-02T23:49:32.702Z,90.00
2023-02-02T23:59:32.895Z,90.77
